createdAt,value
2023-01-02T00:02:49.065Z,12.20
2023-01-02T00:12:55.459Z,12.50
2023-01-02T00:23:02.456Z,14.20
2023-01-02T00:33:08.870Z,12.30
2023-01-02T00:43:15.193Z,11.80
2023-01-02T00:53:21.695Z,11.50
2023-01-02T01:03:28.256Z,10.50
2023-01-02T01:13:34.568Z,12.10
2023-01-02T01:23:41.292Z,15.80
2023-01-02T01:33:47.690Z,18.20
2023-01-02T01:44:04.322Z,13.80
2023-01-02T01:54:11.905Z,21.40
2023-01-02T02:04:19.710Z,21.40
2023-01-02T02:14:26.054Z,19.30
2023-01-02T02:25:07.704Z,17.40
2023-01-02T02:35:23.025Z,40.10
2023-01-02T02:45:43.172Z,19.30
2023-01-02T02:55:52.790Z,17.70
2023-01-02T03:06:17.763Z,22.30
2023-01-02T03:16:43.582Z,21.60
2023-01-02T03:26:52.881Z,20.60
2023-01-02T03:37:09.927Z,20.60
2023-01-02T03:47:38.613Z,22.90
2023-01-02T03:57:57.650Z,22.10
2023-01-02T04:08:07.634Z,22.50
2023-01-02T04:18:22.472Z,19.80
2023-01-02T04:28:30.962Z,22.50
2023-01-02T04:38:37.311Z,20.50
2023-01-02T04:48:43.610Z,24.80
2023-01-02T04:58:50.904Z,26.90
2023-01-02T05:08:57.246Z,25.30
2023-01-02T05:19:03.729Z,36.60
2023-01-02T05:29:10.077Z,40.90
2023-01-02T05:39:16.367Z,37.90
2023-01-02T05:49:22.663Z,38.20
2023-01-02T05:59:28.961Z,40.70
2023-01-02T06:09:35.346Z,45.60
2023-01-02T06:19:41.638Z,46.10
2023-01-02T06:29:47.940Z,47.20
2023-01-02T06:39:54.260Z,48.00
2023-01-02T06:50:00.640Z,47.60
2023-01-02T07:00:07.438Z,45.10
2023-01-02T07:10:13.769Z,47.10
2023-01-02T07:20:20.306Z,44.80
2023-01-02T07:30:26.623Z,42.70
2023-01-02T07:40:34.383Z,43.40
2023-01-02T07:50:40.779Z,40.80
2023-01-02T08:00:47.055Z,36.70
2023-01-02T08:10:53.352Z,40.30
2023-01-02T08:20:59.637Z,39.00
2023-01-02T08:31:10.387Z,38.15
2023-01-02T08:41:16.749Z,39.00
2023-01-02T08:51:23.019Z,42.50
2023-01-02T09:01:31.290Z,47.10
2023-01-02T09:11:39.748Z,49.40
2023-01-02T09:21:46.073Z,47.10
2023-01-02T09:31:52.326Z,51.00
2023-01-02T09:42:00.993Z,59.10
2023-01-02T09:52:16.515Z,55.80
2023-01-02T10:02:41.565Z,54.20
2023-01-02T10:13:09.393Z,49.60
2023-01-02T10:23:24.691Z,46.00
2023-01-02T10:33:37.794Z,30.60
2023-01-02T10:43:44.217Z,28.50
2023-01-02T10:54:08.466Z,21.70
2023-01-02T11:04:27.456Z,21.90
2023-01-02T11:14:36.012Z,19.00
2023-01-02T11:25:19.303Z,22.80
2023-01-02T11:35:47.168Z,14.00
2023-01-02T11:45:53.730Z,12.60
2023-01-02T11:56:09.231Z,9.50
2023-01-02T12:06:37.555Z,9.80
2023-01-02T12:17:02.596Z,9.50
2023-01-02T12:27:31.990Z,8.70
2023-01-02T12:37:51.681Z,9.90
2023-01-02T12:48:35.991Z,9.10
2023-01-02T12:58:46.308Z,9.40
2023-01-02T13:09:22.864Z,8.30
2023-01-02T13:19:43.401Z,8.40
2023-01-02T13:29:49.766Z,8.50
2023-01-02T13:40:01.629Z,7.50
2023-01-02T13:50:34.759Z,7.90
2023-01-02T14:00:46.968Z,8.80
2023-01-02T14:11:10.250Z,9.30
2023-01-02T14:21:18.159Z,10.30
2023-01-02T14:31:34.576Z,9.60
2023-01-02T14:42:31.602Z,10.70
2023-01-02T14:52:40.713Z,12.40
2023-01-02T15:02:48.994Z,13.10
2023-01-02T15:13:08.348Z,15.10
2023-01-02T15:23:21.406Z,15.30
2023-01-02T15:33:35.105Z,15.40
2023-01-02T15:43:59.768Z,15.20
2023-01-02T15:54:06.419Z,13.80
2023-01-02T16:04:28.496Z,19.00
2023-01-02T16:14:44.010Z,18.00
2023-01-02T16:25:09.687Z,17.70
2023-01-02T16:35:25.530Z,16.50
2023-01-02T16:45:32.644Z,16.90
2023-01-02T16:55:38.994Z,19.10
2023-01-02T17:06:01.297Z,19.40
2023-01-02T17:16:09.553Z,20.70
2023-01-02T17:26:15.966Z,20.90
2023-01-02T17:36:22.301Z,17.50
2023-01-02T17:56:55.042Z,19.20
2023-01-02T18:07:02.968Z,23.10
2023-01-02T18:17:28.429Z,22.30
2023-01-02T18:27:36.689Z,21.90
2023-01-02T18:37:43.355Z,21.10
2023-01-02T18:47:59.416Z,23.30
2023-01-02T18:58:09.367Z,21.50
2023-01-02T19:08:37.496Z,20.70
2023-01-02T19:18:48.931Z,19.00
2023-01-02T19:29:01.615Z,19.20
2023-01-02T19:39:28.660Z,18.90
2023-01-02T19:49:35.011Z,20.00
2023-01-02T19:59:43.988Z,17.90
2023-01-02T20:09:50.764Z,18.20
2023-01-02T20:19:57.750Z,20.70
2023-01-02T20:30:04.502Z,18.10
2023-01-02T20:40:11.664Z,20.10
2023-01-02T20:50:18.839Z,17.70
2023-01-02T21:00:25.200Z,17.10
2023-01-02T21:10:31.513Z,18.00
2023-01-02T21:20:41.221Z,17.70
2023-01-02T21:30:52.832Z,17.60
2023-01-02T21:41:19.618Z,17.10
2023-01-02T21:51:32.262Z,18.10
2023-01-02T22:01:39.329Z,18.90
2023-01-02T22:11:57.717Z,19.10
2023-01-02T22:22:04.896Z,18.30
2023-01-02T22:32:11.432Z,18.90
2023-01-02T22:43:03.225Z,17.90
2023-01-02T22:53:18.354Z,15.90
2023-01-02T23:03:24.916Z,17.10
2023-01-02T23:13:31.558Z,17.40
2023-01-02T23:23:37.956Z,17.40
2023-01-02T23:33:44.234Z,18.60
2023-01-02T23:43:49.169Z,17.55
2023-01-02T23:53:55.446Z,18.70
